createdAt,value
2022-12-29T00:02:20.489Z,6.79
2022-12-29T00:04:46.481Z,6.80
2022-12-29T00:07:12.345Z,6.82
2022-12-29T00:09:38.607Z,6.76
2022-12-29T00:12:05.233Z,6.91
2022-12-29T00:14:49.345Z,6.85
2022-12-29T00:17:15.559Z,6.82
2022-12-29T00:20:00.199Z,6.82
2022-12-29T00:22:44.864Z,6.85
2022-12-29T00:25:31.513Z,6.87
2022-12-29T00:28:17.288Z,6.87
2022-12-29T00:31:02.713Z,6.93
2022-12-29T00:33:49.014Z,6.93
2022-12-29T00:36:39.461Z,6.88
2022-12-29T00:39:33.273Z,6.94
2022-12-29T00:42:23.557Z,6.95
2022-12-29T00:44:49.420Z,6.89
2022-12-29T00:47:15.341Z,6.94
2022-12-29T00:49:41.246Z,6.98
2022-12-29T00:52:12.951Z,6.99
2022-12-29T00:54:40.487Z,6.98
2022-12-29T00:57:08.652Z,6.99
2022-12-29T00:59:42.214Z,6.99
2022-12-29T01:02:09.111Z,6.99
2022-12-29T01:04:35.619Z,7.06
2022-12-29T01:07:01.615Z,7.02
2022-12-29T01:09:45.986Z,7.02
2022-12-29T01:12:11.944Z,7.08
2022-12-29T01:14:38.786Z,7.05
2022-12-29T01:17:05.051Z,7.04
2022-12-29T01:19:31.144Z,7.11
2022-12-29T01:21:57.192Z,7.08
2022-12-29T01:24:23.128Z,7.04
2022-12-29T01:26:49.604Z,7.12
2022-12-29T01:29:15.492Z,7.12
2022-12-29T01:31:41.697Z,7.13
2022-12-29T01:34:07.638Z,7.11
2022-12-29T01:36:34.157Z,7.06
2022-12-29T01:39:00.132Z,7.05
2022-12-29T01:41:26.637Z,7.16
2022-12-29T01:43:55.451Z,7.11
2022-12-29T01:46:35.166Z,7.04
2022-12-29T01:49:20.797Z,7.08
2022-12-29T01:52:00.151Z,7.14
2022-12-29T01:54:34.948Z,7.11
2022-12-29T01:57:06.046Z,7.16
2022-12-29T01:59:34.964Z,7.19
2022-12-29T02:02:01.973Z,7.09
2022-12-29T02:04:31.858Z,7.17
2022-12-29T02:07:02.035Z,7.18
2022-12-29T02:09:28.051Z,7.20
2022-12-29T02:11:54.374Z,7.27
2022-12-29T02:14:20.228Z,7.22
2022-12-29T02:17:07.548Z,7.23
2022-12-29T02:19:55.089Z,7.28
2022-12-29T02:22:42.240Z,7.26
2022-12-29T02:25:58.547Z,7.31
2022-12-29T02:28:55.945Z,7.30
2022-12-29T02:31:31.088Z,7.35
2022-12-29T02:34:31.039Z,7.36
2022-12-29T02:37:11.813Z,7.34
2022-12-29T02:39:50.594Z,7.35
2022-12-29T02:42:40.884Z,7.40
2022-12-29T02:45:19.649Z,7.37
2022-12-29T02:47:57.004Z,7.33
2022-12-29T02:50:35.252Z,7.37
2022-12-29T02:53:13.116Z,7.39
2022-12-29T02:55:42.795Z,7.43
2022-12-29T02:58:17.209Z,7.50
2022-12-29T03:01:20.224Z,7.45
2022-12-29T03:03:57.886Z,7.51
2022-12-29T03:06:32.560Z,7.42
2022-12-29T03:09:43.594Z,7.55
2022-12-29T03:12:19.676Z,7.51
2022-12-29T03:15:16.733Z,7.49
2022-12-29T03:17:57.767Z,7.63
2022-12-29T03:20:39.694Z,7.60
2022-12-29T03:23:07.150Z,7.58
2022-12-29T03:25:38.044Z,7.62
2022-12-29T03:28:09.523Z,7.74
2022-12-29T03:30:37.628Z,7.62
2022-12-29T03:33:07.701Z,7.54
2022-12-29T03:35:36.797Z,7.57
2022-12-29T03:38:02.496Z,7.62
2022-12-29T03:40:30.388Z,7.57
2022-12-29T03:42:56.490Z,7.58
2022-12-29T03:45:22.393Z,7.51
2022-12-29T03:47:48.389Z,7.52
2022-12-29T03:50:14.480Z,7.50
2022-12-29T03:52:40.505Z,7.52
2022-12-29T03:55:06.770Z,7.47
2022-12-29T03:57:33.396Z,7.44
2022-12-29T03:59:59.228Z,7.37
2022-12-29T04:02:25.374Z,7.43
2022-12-29T04:04:53.197Z,7.41
2022-12-29T04:07:19.042Z,7.35
2022-12-29T04:09:44.917Z,7.33
2022-12-29T04:12:10.725Z,7.33
2022-12-29T04:14:36.635Z,7.41
2022-12-29T04:17:02.783Z,7.44
2022-12-29T04:19:28.667Z,7.48
2022-12-29T04:21:54.508Z,7.37
2022-12-29T04:24:20.477Z,7.45
2022-12-29T04:26:46.442Z,7.47
2022-12-29T04:29:12.291Z,7.46
2022-12-29T04:31:38.166Z,7.53
2022-12-29T04:34:06.310Z,7.48
2022-12-29T04:36:32.133Z,7.52
2022-12-29T04:38:57.917Z,7.52
2022-12-29T04:41:23.808Z,7.57
2022-12-29T04:43:49.671Z,7.58
2022-12-29T04:46:15.933Z,7.60
2022-12-29T04:48:41.928Z,7.55
2022-12-29T04:51:07.790Z,7.68
2022-12-29T04:53:33.642Z,7.62
2022-12-29T04:55:59.509Z,7.57
2022-12-29T04:58:25.405Z,7.69
2022-12-29T05:00:52.105Z,7.69
2022-12-29T05:03:18.802Z,7.64
2022-12-29T05:05:44.850Z,7.74
2022-12-29T05:08:10.842Z,7.65
2022-12-29T05:10:36.646Z,7.64
2022-12-29T05:13:02.503Z,7.66
2022-12-29T05:15:28.453Z,7.66
2022-12-29T05:17:54.223Z,7.64
2022-12-29T05:20:20.070Z,7.66
2022-12-29T05:22:45.884Z,7.72
2022-12-29T05:25:11.794Z,7.69
2022-12-29T05:27:37.760Z,7.82
2022-12-29T05:30:03.948Z,7.79
2022-12-29T05:32:29.787Z,7.72
2022-12-29T05:34:55.577Z,7.69
2022-12-29T05:37:21.412Z,7.78
2022-12-29T05:39:47.229Z,7.84
2022-12-29T05:42:13.018Z,7.77
2022-12-29T05:44:38.896Z,7.79
2022-12-29T05:47:04.884Z,7.84
2022-12-29T05:49:31.037Z,7.81
2022-12-29T05:51:56.947Z,7.86
2022-12-29T05:54:22.864Z,7.93
2022-12-29T05:56:48.725Z,7.94
2022-12-29T05:59:14.582Z,8.01
2022-12-29T06:01:40.676Z,8.02
2022-12-29T06:04:06.611Z,7.95
2022-12-29T06:06:32.723Z,8.01
2022-12-29T06:08:58.935Z,7.99
2022-12-29T06:11:24.806Z,7.94
2022-12-29T06:13:50.668Z,7.94
2022-12-29T06:16:16.736Z,7.94
2022-12-29T06:18:43.255Z,7.91
2022-12-29T06:21:09.071Z,7.87
2022-12-29T06:23:34.849Z,7.85
2022-12-29T06:26:00.668Z,7.86
2022-12-29T06:28:26.524Z,7.77
2022-12-29T06:30:52.393Z,7.76
2022-12-29T06:33:18.241Z,7.73
2022-12-29T06:35:46.019Z,7.77
2022-12-29T06:38:12.350Z,7.73
2022-12-29T06:40:38.393Z,7.85
2022-12-29T06:43:04.293Z,7.83
2022-12-29T06:45:30.220Z,7.78
2022-12-29T06:47:56.374Z,7.77
2022-12-29T06:50:22.301Z,7.76
2022-12-29T06:52:48.161Z,7.77
2022-12-29T06:55:13.980Z,7.76
2022-12-29T06:57:39.826Z,7.78
2022-12-29T07:00:06.376Z,7.69
2022-12-29T07:02:33.026Z,7.62
2022-12-29T07:04:59.017Z,7.57
2022-12-29T07:07:24.943Z,7.59
2022-12-29T07:09:50.789Z,7.64
2022-12-29T07:12:16.606Z,7.63
2022-12-29T07:14:43.731Z,7.68
2022-12-29T07:17:09.866Z,7.74
2022-12-29T07:19:35.881Z,7.59
2022-12-29T07:22:01.769Z,7.52
2022-12-29T07:24:27.643Z,7.45
2022-12-29T07:26:53.479Z,7.48
2022-12-29T07:29:19.259Z,7.45
2022-12-29T07:31:45.107Z,7.43
2022-12-29T07:34:11.055Z,7.36
2022-12-29T07:36:37.083Z,7.44
2022-12-29T07:39:03.494Z,7.54
2022-12-29T07:41:29.636Z,7.47
2022-12-29T07:43:55.542Z,7.42
2022-12-29T07:46:55.880Z,7.44
2022-12-29T07:49:07.280Z,7.49
2022-12-29T07:51:33.211Z,7.37
2022-12-29T07:54:00.974Z,7.45
2022-12-29T07:56:27.268Z,7.35
2022-12-29T07:58:53.139Z,7.40
2022-12-29T08:01:19.091Z,7.35
2022-12-29T08:03:45.139Z,7.32
2022-12-29T08:06:12.140Z,7.29
2022-12-29T08:08:38.596Z,7.31
2022-12-29T08:11:04.598Z,7.27
2022-12-29T08:13:30.473Z,7.36
2022-12-29T08:15:58.099Z,7.41
2022-12-29T08:18:23.897Z,7.37
2022-12-29T08:20:54.062Z,7.32
2022-12-29T08:23:21.550Z,7.40
2022-12-29T08:25:48.002Z,7.40
2022-12-29T08:28:13.840Z,7.42
2022-12-29T08:30:39.728Z,7.32
2022-12-29T08:33:05.581Z,7.37
2022-12-29T08:35:31.363Z,7.50
2022-12-29T08:37:57.192Z,7.40
2022-12-29T08:40:22.990Z,7.40
2022-12-29T08:42:49.554Z,7.54
2022-12-29T08:45:15.596Z,7.51
2022-12-29T08:47:41.539Z,7.43
2022-12-29T08:50:07.545Z,7.46
2022-12-29T08:52:33.376Z,7.61
2022-12-29T08:54:59.236Z,7.52
2022-12-29T08:57:25.143Z,7.60
2022-12-29T08:59:51.120Z,7.56
2022-12-29T09:02:26.151Z,7.46
2022-12-29T09:04:52.674Z,7.45
2022-12-29T09:07:18.623Z,7.30
2022-12-29T09:09:44.425Z,7.34
2022-12-29T09:12:10.497Z,7.34
2022-12-29T09:14:36.462Z,7.44
2022-12-29T09:17:21.040Z,7.37
2022-12-29T09:19:46.880Z,7.53
2022-12-29T09:22:12.779Z,7.46
2022-12-29T09:24:38.603Z,7.47
2022-12-29T09:27:04.473Z,7.47
2022-12-29T09:29:30.346Z,7.50
2022-12-29T09:31:56.364Z,7.54
2022-12-29T09:34:22.402Z,7.56
2022-12-29T09:36:48.213Z,7.50
2022-12-29T09:39:14.157Z,7.66
2022-12-29T09:41:47.161Z,7.57
2022-12-29T09:44:23.437Z,7.67
2022-12-29T09:46:53.119Z,7.61
2022-12-29T09:49:40.065Z,7.78
2022-12-29T09:52:31.861Z,7.58
2022-12-29T09:55:35.411Z,7.62
2022-12-29T09:58:12.494Z,7.66
2022-12-29T10:00:57.819Z,7.79
2022-12-29T10:03:28.385Z,7.75
2022-12-29T10:06:09.414Z,7.75
2022-12-29T10:08:58.262Z,7.67
2022-12-29T10:11:40.154Z,7.73
2022-12-29T10:14:37.128Z,7.84
2022-12-29T10:17:27.382Z,7.69
2022-12-29T10:20:09.040Z,7.68
2022-12-29T10:23:02.326Z,7.70
2022-12-29T10:25:33.155Z,7.69
2022-12-29T10:28:05.945Z,7.62
2022-12-29T10:30:34.517Z,7.75
2022-12-29T10:33:08.038Z,7.71
2022-12-29T10:35:39.184Z,7.79
2022-12-29T10:38:27.361Z,7.88
2022-12-29T10:41:12.262Z,7.95
2022-12-29T10:43:50.643Z,7.96
2022-12-29T10:46:27.881Z,8.09
2022-12-29T10:48:53.726Z,7.97
2022-12-29T10:51:26.641Z,7.90
2022-12-29T10:53:57.942Z,7.74
2022-12-29T10:56:35.898Z,7.86
2022-12-29T10:59:30.451Z,7.92
2022-12-29T11:02:05.516Z,7.89
2022-12-29T11:04:52.693Z,7.81
2022-12-29T11:07:26.710Z,7.88
2022-12-29T11:09:53.674Z,7.79
2022-12-29T11:12:29.713Z,7.87
2022-12-29T11:15:03.528Z,7.73
2022-12-29T11:17:29.366Z,7.78
2022-12-29T11:19:55.175Z,7.81
2022-12-29T11:22:27.919Z,7.75
2022-12-29T11:25:04.890Z,7.80
2022-12-29T11:27:31.176Z,7.73
2022-12-29T11:29:57.015Z,7.67
2022-12-29T11:32:28.826Z,7.71
2022-12-29T11:34:57.871Z,7.63
2022-12-29T11:37:26.606Z,7.65
2022-12-29T11:39:59.629Z,7.70
2022-12-29T11:42:38.411Z,7.63
2022-12-29T11:45:15.111Z,7.65
2022-12-29T11:47:44.369Z,7.61
2022-12-29T11:50:21.642Z,7.58
2022-12-29T11:52:49.876Z,7.70
2022-12-29T11:55:24.910Z,7.60
2022-12-29T11:57:53.370Z,7.71
2022-12-29T12:00:21.987Z,7.64
2022-12-29T12:03:12.509Z,7.74
2022-12-29T12:05:54.667Z,7.70
2022-12-29T12:08:45.185Z,7.68
2022-12-29T12:11:38.339Z,7.71
2022-12-29T12:14:26.796Z,7.84
2022-12-29T12:17:06.198Z,7.65
2022-12-29T12:19:38.737Z,7.59
2022-12-29T12:22:14.136Z,7.77
2022-12-29T12:24:50.666Z,7.69
2022-12-29T12:27:35.190Z,7.67
2022-12-29T12:30:22.173Z,7.65
2022-12-29T12:32:59.344Z,7.66
2022-12-29T12:36:02.549Z,7.56
2022-12-29T12:38:37.975Z,7.66
2022-12-29T12:41:23.095Z,7.70
2022-12-29T12:43:57.067Z,7.65
2022-12-29T12:46:23.052Z,7.62
2022-12-29T12:49:19.650Z,7.47
2022-12-29T12:52:13.407Z,7.53
2022-12-29T12:55:02.437Z,7.52
2022-12-29T12:57:55.765Z,7.49
2022-12-29T13:00:23.633Z,7.56
2022-12-29T13:03:11.592Z,7.59
2022-12-29T13:05:49.835Z,7.43
2022-12-29T13:08:38.844Z,7.48
2022-12-29T13:11:07.333Z,7.42
2022-12-29T13:13:41.385Z,7.43
2022-12-29T13:16:23.021Z,7.29
2022-12-29T13:19:22.825Z,7.24
2022-12-29T13:22:18.067Z,7.18
2022-12-29T13:25:18.765Z,7.24
2022-12-29T13:27:55.112Z,7.25
2022-12-29T13:30:23.516Z,7.31
2022-12-29T13:33:21.965Z,7.29
2022-12-29T13:36:12.738Z,7.35
2022-12-29T13:38:43.998Z,7.39
2022-12-29T13:41:27.755Z,7.32
2022-12-29T13:43:55.165Z,7.38
2022-12-29T13:46:37.548Z,7.41
2022-12-29T13:49:17.258Z,7.39
2022-12-29T13:52:09.883Z,7.57
2022-12-29T13:54:45.980Z,7.43
2022-12-29T13:57:27.381Z,7.31
2022-12-29T14:00:23.115Z,7.34
2022-12-29T14:03:10.479Z,7.35
2022-12-29T14:05:36.683Z,7.30
2022-12-29T14:08:06.107Z,7.38
2022-12-29T14:10:47.518Z,7.46
2022-12-29T14:13:17.223Z,7.33
2022-12-29T14:15:45.946Z,7.42
2022-12-29T14:18:16.240Z,7.44
2022-12-29T14:21:00.257Z,7.43
2022-12-29T14:23:41.790Z,7.29
2022-12-29T14:26:07.586Z,7.19
2022-12-29T14:28:39.290Z,7.26
2022-12-29T14:31:25.698Z,7.21
2022-12-29T14:34:06.860Z,7.10
2022-12-29T14:36:38.827Z,7.15
2022-12-29T14:39:30.756Z,7.11
2022-12-29T14:42:22.787Z,7.19
2022-12-29T14:45:03.236Z,7.05
2022-12-29T14:47:31.823Z,7.08
2022-12-29T14:50:24.090Z,7.08
2022-12-29T14:53:02.055Z,7.07
2022-12-29T14:55:40.328Z,7.05
2022-12-29T14:58:14.736Z,7.10
2022-12-29T15:00:42.687Z,7.10
2022-12-29T15:03:23.747Z,6.99
2022-12-29T15:05:53.876Z,6.98
2022-12-29T15:08:30.815Z,6.99
2022-12-29T15:11:03.381Z,6.95
2022-12-29T15:13:37.668Z,6.89
2022-12-29T15:16:05.084Z,6.94
2022-12-29T15:18:33.357Z,6.97
2022-12-29T15:21:02.444Z,6.93
2022-12-29T15:23:31.416Z,6.84
2022-12-29T15:25:58.482Z,6.86
2022-12-29T15:28:25.496Z,6.99
2022-12-29T15:31:05.093Z,6.88
2022-12-29T15:33:31.157Z,6.66
2022-12-29T15:36:03.644Z,6.67
2022-12-29T15:38:37.049Z,6.58
2022-12-29T15:41:18.131Z,6.54
2022-12-29T15:44:16.216Z,6.52
2022-12-29T15:46:42.113Z,6.49
2022-12-29T15:49:08.986Z,6.57
2022-12-29T15:51:40.031Z,6.64
2022-12-29T15:54:12.750Z,6.55
2022-12-29T15:56:38.924Z,6.49
2022-12-29T15:59:04.965Z,6.45
2022-12-29T16:01:36.446Z,6.47
2022-12-29T16:04:08.558Z,6.42
2022-12-29T16:06:39.412Z,6.52
2022-12-29T16:09:05.420Z,6.55
2022-12-29T16:11:35.964Z,6.51
2022-12-29T16:14:06.944Z,6.58
2022-12-29T16:16:38.497Z,6.60
2022-12-29T16:19:13.098Z,6.77
2022-12-29T16:21:39.361Z,6.66
2022-12-29T16:24:09.438Z,6.66
2022-12-29T16:26:36.351Z,6.54
2022-12-29T16:29:06.985Z,6.59
2022-12-29T16:31:48.929Z,6.58
2022-12-29T16:34:25.692Z,6.57
2022-12-29T16:37:25.179Z,6.55
2022-12-29T16:39:51.104Z,6.54
2022-12-29T16:42:50.975Z,6.48
2022-12-29T16:45:21.156Z,6.46
2022-12-29T16:48:00.441Z,6.49
2022-12-29T16:50:28.817Z,6.47
2022-12-29T16:52:54.851Z,6.47
2022-12-29T16:55:20.728Z,6.34
2022-12-29T16:57:49.576Z,6.44
2022-12-29T17:00:21.145Z,6.33
2022-12-29T17:02:49.794Z,6.39
2022-12-29T17:05:17.822Z,6.31
2022-12-29T17:07:44.580Z,6.37
2022-12-29T17:10:10.865Z,6.38
2022-12-29T17:12:37.553Z,6.28
2022-12-29T17:15:21.922Z,6.43
2022-12-29T17:17:51.212Z,6.48
2022-12-29T17:20:20.215Z,6.42
2022-12-29T17:22:47.146Z,6.45
2022-12-29T17:25:15.633Z,6.56
2022-12-29T17:27:43.634Z,6.54
2022-12-29T17:30:15.743Z,6.52
2022-12-29T17:32:46.173Z,6.48
2022-12-29T17:35:19.819Z,6.32
2022-12-29T17:37:46.251Z,6.42
2022-12-29T17:40:21.618Z,6.40
2022-12-29T17:42:49.903Z,6.28
2022-12-29T17:45:18.251Z,6.24
2022-12-29T17:47:44.595Z,6.22
2022-12-29T17:50:16.706Z,6.05
2022-12-29T17:52:46.907Z,6.06
2022-12-29T17:55:18.494Z,6.06
2022-12-29T17:57:44.901Z,6.00
2022-12-29T18:00:21.590Z,5.98
2022-12-29T18:02:48.370Z,6.11
2022-12-29T18:05:22.019Z,6.08
2022-12-29T18:07:50.642Z,6.16
2022-12-29T18:10:16.688Z,6.15
2022-12-29T18:12:48.012Z,6.10
2022-12-29T18:15:26.544Z,6.03
2022-12-29T18:18:14.634Z,6.12
2022-12-29T18:20:42.453Z,6.09
2022-12-29T18:23:31.705Z,5.97
2022-12-29T18:26:05.461Z,5.92
2022-12-29T18:28:31.516Z,5.93
2022-12-29T18:30:59.810Z,5.91
2022-12-29T18:33:27.529Z,5.94
2022-12-29T18:36:03.544Z,5.85
2022-12-29T18:38:29.915Z,5.94
2022-12-29T18:40:57.260Z,5.88
2022-12-29T18:43:23.351Z,5.96
2022-12-29T18:45:49.498Z,6.00
2022-12-29T18:48:17.537Z,6.03
2022-12-29T18:50:44.451Z,5.98
2022-12-29T18:53:19.653Z,6.01
2022-12-29T18:55:45.699Z,6.11
2022-12-29T18:58:12.076Z,5.93
2022-12-29T19:00:38.567Z,5.94
2022-12-29T19:03:05.428Z,5.93
2022-12-29T19:05:36.710Z,5.92
2022-12-29T19:08:02.892Z,5.82
2022-12-29T19:10:28.971Z,5.75
2022-12-29T19:12:54.986Z,5.70
2022-12-29T19:15:25.034Z,5.75
2022-12-29T19:18:16.047Z,5.80
2022-12-29T19:20:43.072Z,5.83
2022-12-29T19:23:18.188Z,5.68
2022-12-29T19:25:45.294Z,5.50
2022-12-29T19:28:25.566Z,5.51
2022-12-29T19:30:53.072Z,5.48
2022-12-29T19:33:20.905Z,5.47
2022-12-29T19:35:47.500Z,5.47
2022-12-29T19:38:14.397Z,5.57
2022-12-29T19:40:45.864Z,5.55
2022-12-29T19:43:13.428Z,5.64
2022-12-29T19:45:41.623Z,5.58
2022-12-29T19:48:12.405Z,5.69
2022-12-29T19:50:38.306Z,5.60
2022-12-29T19:53:05.707Z,5.53
2022-12-29T19:55:32.210Z,5.64
2022-12-29T19:57:58.506Z,5.61
2022-12-29T20:00:24.708Z,5.62
2022-12-29T20:02:50.699Z,5.63
2022-12-29T20:05:16.829Z,5.54
2022-12-29T20:07:42.721Z,5.45
2022-12-29T20:10:09.290Z,5.55
2022-12-29T20:12:37.145Z,5.64
2022-12-29T20:15:05.819Z,5.59
2022-12-29T20:18:02.304Z,5.64
2022-12-29T20:20:17.662Z,5.71
2022-12-29T20:22:43.574Z,5.58
2022-12-29T20:25:53.932Z,5.45
2022-12-29T20:27:55.335Z,5.60
2022-12-29T20:30:21.543Z,5.53
2022-12-29T20:32:47.559Z,5.60
2022-12-29T20:35:13.599Z,5.55
2022-12-29T20:37:39.483Z,5.72
2022-12-29T20:40:07.934Z,5.72
2022-12-29T20:42:33.933Z,5.63
2022-12-29T20:45:01.056Z,5.65
2022-12-29T20:47:27.655Z,5.69
2022-12-29T20:49:53.536Z,5.59
2022-12-29T20:52:19.357Z,5.63
2022-12-29T20:54:45.529Z,5.77
2022-12-29T20:57:11.598Z,5.74
2022-12-29T20:59:37.546Z,5.66
2022-12-29T21:02:03.717Z,5.46
2022-12-29T21:04:50.248Z,5.45
2022-12-29T21:07:19.977Z,5.50
2022-12-29T21:09:46.418Z,5.52
2022-12-29T21:12:12.511Z,5.46
2022-12-29T21:14:42.246Z,5.58
2022-12-29T21:17:11.331Z,5.32
2022-12-29T21:19:37.332Z,5.43
2022-12-29T21:22:03.270Z,5.38
2022-12-29T21:24:29.945Z,5.17
2022-12-29T21:26:55.886Z,5.22
2022-12-29T21:29:22.129Z,5.12
2022-12-29T21:31:48.072Z,5.17
2022-12-29T21:34:14.236Z,5.25
2022-12-29T21:36:40.508Z,5.25
2022-12-29T21:39:06.489Z,5.22
2022-12-29T21:41:32.546Z,5.34
2022-12-29T21:44:17.055Z,5.25
2022-12-29T21:46:46.124Z,5.34
2022-12-29T21:49:12.267Z,5.36
2022-12-29T21:51:50.490Z,5.31
2022-12-29T21:54:44.214Z,5.28
2022-12-29T21:57:15.455Z,5.21
2022-12-29T22:00:03.909Z,5.16
2022-12-29T22:02:48.990Z,5.20
2022-12-29T22:05:33.929Z,5.22
2022-12-29T22:08:20.223Z,5.15
2022-12-29T22:11:05.966Z,5.15
2022-12-29T22:13:33.698Z,5.04
2022-12-29T22:16:03.238Z,4.92
2022-12-29T22:18:29.315Z,4.92
2022-12-29T22:20:55.451Z,4.92
2022-12-29T22:23:21.422Z,4.94
2022-12-29T22:25:49.245Z,4.96
2022-12-29T22:28:16.061Z,4.99
2022-12-29T22:30:42.113Z,5.01
2022-12-29T22:33:08.020Z,4.99
2022-12-29T22:35:33.998Z,4.70
2022-12-29T22:37:59.834Z,4.74
2022-12-29T22:40:25.820Z,4.58
2022-12-29T22:42:51.794Z,4.52
2022-12-29T22:45:17.736Z,4.62
2022-12-29T22:47:43.685Z,4.51
2022-12-29T22:50:09.890Z,4.54
2022-12-29T22:52:35.950Z,4.60
2022-12-29T22:55:06.630Z,4.54
2022-12-29T22:57:33.107Z,4.61
2022-12-29T22:59:58.979Z,4.47
2022-12-29T23:02:25.111Z,4.56
2022-12-29T23:05:06.774Z,4.66
2022-12-29T23:07:34.011Z,4.70
2022-12-29T23:10:00.275Z,4.84
2022-12-29T23:12:30.185Z,4.79
2022-12-29T23:14:56.137Z,4.86
2022-12-29T23:17:22.162Z,4.90
2022-12-29T23:19:48.050Z,4.85
2022-12-29T23:22:14.185Z,4.80
2022-12-29T23:24:40.005Z,4.86
2022-12-29T23:27:06.241Z,4.99
2022-12-29T23:29:32.185Z,4.96
2022-12-29T23:31:58.068Z,4.87
2022-12-29T23:34:24.080Z,4.76
2022-12-29T23:36:50.480Z,4.64
2022-12-29T23:39:23.591Z,4.78
2022-12-29T23:41:50.130Z,4.84
2022-12-29T23:44:16.053Z,4.82
2022-12-29T23:46:42.031Z,4.86
2022-12-29T23:49:08.809Z,4.86
2022-12-29T23:51:34.850Z,4.90
2022-12-29T23:54:01.346Z,4.84
2022-12-29T23:56:27.261Z,4.78
2022-12-29T23:58:53.950Z,4.66
